Time;durP1;ratioP1;P1;durP2;ratioP2;P2;SDS_P1;SDS_P2;PMS_P1;PMS_P2;Temp;Humidity;BMP_temperature;BMP_pressure;BME280_temperature;BME280_humidity;BME280_pressure;Samples;Min_cycle;Max_cycle;Signal;HPM_P1;HPM_P2
2023/09/29 00:00:23;;;;;;;15.38;11.50;;;;;;;;;;4959613;28;20039;-79
2023/09/29 00:02:50;;;;;;;17.25;12.55;;;;;;;;;;4961892;28;20038;-79
2023/09/29 00:05:17;;;;;;;18.58;13.40;;;;;;;;;;4961059;28;20035;-79
2023/09/29 00:07:43;;;;;;;17.15;12.85;;;;;;;;;;4976948;28;20113;-79
2023/09/29 00:10:14;;;;;;;18.52;13.05;;;;;;;;;;4974870;28;20043;-79
2023/09/29 00:12:41;;;;;;;18.15;12.55;;;;;;;;;;4958565;28;20051;-79
2023/09/29 00:15:07;;;;;;;17.95;11.98;;;;;;;;;;4975243;28;20053;-79
2023/09/29 00:17:33;;;;;;;16.60;12.25;;;;;;;;;;4960153;28;20561;-79
2023/09/29 00:20:11;;;;;;;17.77;13.60;;;;;;;;;;4959606;28;20121;-79
2023/09/29 00:22:37;;;;;;;15.20;12.90;;;;;;;;;;4962909;28;20110;-79
2023/09/29 00:25:04;;;;;;;18.52;13.52;;;;;;;;;;4974536;28;20046;-78
2023/09/29 00:27:30;;;;;;;17.42;13.23;;;;;;;;;;4963896;28;20118;-79
2023/09/29 00:29:55;;;;;;;15.73;12.65;;;;;;;;;;4956930;28;20074;-79
2023/09/29 00:32:21;;;;;;;17.23;12.77;;;;;;;;;;4959517;28;20055;-78
2023/09/29 00:34:46;;;;;;;16.38;12.35;;;;;;;;;;4974628;28;20752;-79
2023/09/29 00:37:11;;;;;;;19.40;13.15;;;;;;;;;;4973954;28;20039;-78
2023/09/29 00:39:37;;;;;;;16.30;12.88;;;;;;;;;;4957645;28;20062;-80
2023/09/29 00:42:06;;;;;;;19.77;12.35;;;;;;;;;;4957013;28;20042;-79
2023/09/29 00:44:33;;;;;;;17.60;13.20;;;;;;;;;;4974188;28;20772;-79
2023/09/29 00:46:59;;;;;;;16.85;12.52;;;;;;;;;;4956580;28;20462;-80
2023/09/29 00:49:26;;;;;;;17.98;13.70;;;;;;;;;;4957860;28;20533;-79
2023/09/29 00:51:52;;;;;;;19.03;13.93;;;;;;;;;;4941265;28;20376;-79
2023/09/29 00:54:18;;;;;;;15.88;13.10;;;;;;;;;;4957420;28;20037;-79
2023/09/29 00:56:43;;;;;;;17.02;12.77;;;;;;;;;;4955400;28;20050;-79
2023/09/29 00:59:10;;;;;;;18.33;13.70;;;;;;;;;;4958081;28;20487;-79
2023/09/29 01:01:36;;;;;;;17.13;12.83;;;;;;;;;;4939593;28;20027;-79
2023/09/29 01:04:02;;;;;;;20.73;13.73;;;;;;;;;;4957769;28;20034;-79
2023/09/29 01:06:29;;;;;;;18.40;13.75;;;;;;;;;;4957357;28;20027;-79
2023/09/29 01:08:59;;;;;;;17.75;13.95;;;;;;;;;;4958304;28;20049;-79
2023/09/29 01:11:25;;;;;;;17.40;13.20;;;;;;;;;;4957130;28;20069;-79
2023/09/29 01:13:51;;;;;;;17.45;13.68;;;;;;;;;;4947827;28;20235;-79
2023/09/29 01:16:17;;;;;;;18.27;13.95;;;;;;;;;;4964095;28;20509;-79
2023/09/29 01:18:43;;;;;;;19.45;14.10;;;;;;;;;;4956478;28;20051;-79
2023/09/29 01:21:08;;;;;;;18.58;15.10;;;;;;;;;;4970952;28;20496;-79
2023/09/29 01:23:34;;;;;;;18.85;14.50;;;;;;;;;;4940388;28;20031;-79
2023/09/29 01:26:02;;;;;;;18.10;14.32;;;;;;;;;;4962943;28;20042;-79
2023/09/29 01:28:28;;;;;;;17.85;14.50;;;;;;;;;;4956196;28;20046;-79
2023/09/29 01:30:54;;;;;;;18.13;14.32;;;;;;;;;;4957452;28;20039;-79
2023/09/29 01:33:21;;;;;;;17.75;14.52;;;;;;;;;;4979131;28;20042;-79
2023/09/29 01:35:48;;;;;;;19.48;15.23;;;;;;;;;;4971895;28;20121;-79
2023/09/29 01:38:14;;;;;;;19.90;15.15;;;;;;;;;;4956388;28;20511;-79
2023/09/29 01:40:45;;;;;;;18.70;14.60;;;;;;;;;;4946579;28;20042;-79
2023/09/29 01:43:10;;;;;;;17.98;15.05;;;;;;;;;;4963494;28;20414;-79
2023/09/29 01:45:38;;;;;;;18.90;15.32;;;;;;;;;;4956254;28;20038;-79
2023/09/29 01:48:04;;;;;;;19.38;15.18;;;;;;;;;;4957608;28;20063;-79
2023/09/29 01:50:32;;;;;;;18.30;14.60;;;;;;;;;;4955783;28;20527;-80
2023/09/29 01:52:58;;;;;;;18.92;14.48;;;;;;;;;;4960119;28;20165;-79
2023/09/29 01:55:24;;;;;;;17.05;14.30;;;;;;;;;;4956202;28;20446;-80
2023/09/29 01:57:53;;;;;;;19.15;14.18;;;;;;;;;;4958151;28;20039;-79
2023/09/29 02:00:19;;;;;;;19.95;15.18;;;;;;;;;;4937882;28;20648;-79
2023/09/29 02:02:48;;;;;;;20.42;15.18;;;;;;;;;;4956795;28;20069;-79
2023/09/29 02:05:16;;;;;;;21.25;15.13;;;;;;;;;;4954121;28;20053;-79
2023/09/29 02:07:42;;;;;;;19.13;15.60;;;;;;;;;;4962003;28;20046;-79
2023/09/29 02:10:08;;;;;;;16.50;14.68;;;;;;;;;;4933018;28;20043;-78
2023/09/29 02:12:34;;;;;;;18.63;15.13;;;;;;;;;;4969620;28;20126;-78
2023/09/29 02:14:59;;;;;;;17.98;15.10;;;;;;;;;;4967243;28;20569;-79
2023/09/29 02:17:25;;;;;;;18.88;14.07;;;;;;;;;;4944126;28;20069;-79
2023/09/29 02:19:52;;;;;;;19.30;15.18;;;;;;;;;;4977502;28;20109;-79
2023/09/29 02:22:19;;;;;;;20.13;14.80;;;;;;;;;;4958024;28;20390;-79
2023/09/29 02:24:44;;;;;;;18.08;14.88;;;;;;;;;;4975933;28;20042;-79
2023/09/29 02:27:10;;;;;;;19.52;14.15;;;;;;;;;;4960316;28;20607;-79
2023/09/29 02:29:35;;;;;;;17.80;14.25;;;;;;;;;;4945991;28;20055;-79
2023/09/29 02:32:01;;;;;;;17.90;14.32;;;;;;;;;;4934154;29;20803;-79
2023/09/29 02:34:28;;;;;;;17.40;14.38;;;;;;;;;;4934096;29;20047;-79
2023/09/29 02:36:54;;;;;;;20.02;14.63;;;;;;;;;;4933846;29;20985;-79
2023/09/29 02:39:19;;;;;;;19.63;14.25;;;;;;;;;;4949245;28;20051;-79
2023/09/29 02:41:45;;;;;;;18.02;13.77;;;;;;;;;;4935894;29;20067;-79
2023/09/29 02:44:10;;;;;;;17.60;14.25;;;;;;;;;;4950263;28;20098;-79
2023/09/29 02:46:35;;;;;;;17.80;13.95;;;;;;;;;;4938390;29;20053;-79
2023/09/29 02:49:03;;;;;;;17.00;13.65;;;;;;;;;;4950342;28;20721;-79
2023/09/29 02:51:29;;;;;;;18.25;14.00;;;;;;;;;;4936677;29;20700;-79
2023/09/29 02:53:55;;;;;;;18.42;13.73;;;;;;;;;;4936895;29;20051;-79
2023/09/29 02:56:21;;;;;;;19.30;14.02;;;;;;;;;;4924910;29;20039;-79
2023/09/29 02:58:46;;;;;;;15.18;13.02;;;;;;;;;;4956338;28;20056;-79
2023/09/29 03:01:16;;;;;;;18.70;14.95;;;;;;;;;;4937820;29;20058;-79
2023/09/29 03:03:43;;;;;;;18.40;15.45;;;;;;;;;;4933340;29;20040;-79
2023/09/29 03:06:14;;;;;;;20.35;15.00;;;;;;;;;;4957175;28;20051;-79
2023/09/29 03:08:39;;;;;;;18.73;14.60;;;;;;;;;;4935112;29;20051;-79
2023/09/29 03:11:06;;;;;;;20.23;15.80;;;;;;;;;;4933631;29;20688;-80
2023/09/29 03:13:32;;;;;;;18.17;14.80;;;;;;;;;;4935629;28;20066;-80
2023/09/29 03:15:57;;;;;;;20.58;15.50;;;;;;;;;;4932866;29;20579;-78
2023/09/29 03:18:23;;;;;;;18.60;15.65;;;;;;;;;;4935668;29;20066;-80
2023/09/29 03:20:52;;;;;;;19.38;16.10;;;;;;;;;;4953654;28;20071;-80
2023/09/29 03:23:17;;;;;;;20.65;14.98;;;;;;;;;;4949406;28;20047;-81
2023/09/29 03:25:42;;;;;;;18.52;15.40;;;;;;;;;;4949462;28;20062;-80
2023/09/29 03:28:09;;;;;;;19.38;15.57;;;;;;;;;;4951550;28;20047;-78
2023/09/29 03:30:35;;;;;;;20.00;14.43;;;;;;;;;;4919489;29;20550;-78
2023/09/29 03:33:00;;;;;;;20.33;15.68;;;;;;;;;;4933554;29;20082;-78
2023/09/29 03:35:25;;;;;;;16.52;14.32;;;;;;;;;;4950217;28;20098;-78
2023/09/29 03:37:51;;;;;;;19.60;14.30;;;;;;;;;;4933203;29;20052;-78
2023/09/29 03:40:18;;;;;;;18.17;14.65;;;;;;;;;;4938169;28;20687;-78
2023/09/29 03:42:43;;;;;;;19.52;14.45;;;;;;;;;;4935678;28;20130;-78
2023/09/29 03:45:11;;;;;;;18.58;14.02;;;;;;;;;;4919898;29;20620;-79
2023/09/29 03:47:37;;;;;;;18.58;14.23;;;;;;;;;;4936755;28;20073;-78
2023/09/29 03:50:06;;;;;;;18.13;14.13;;;;;;;;;;4917876;29;20051;-78
2023/09/29 03:52:32;;;;;;;16.50;14.43;;;;;;;;;;4952734;28;20111;-78
2023/09/29 03:54:57;;;;;;;18.85;15.00;;;;;;;;;;4932607;29;20043;-79
2023/09/29 03:57:23;;;;;;;20.85;14.70;;;;;;;;;;4923980;29;20393;-78
2023/09/29 03:59:48;;;;;;;20.00;15.15;;;;;;;;;;4949027;28;20039;-78
2023/09/29 04:02:13;;;;;;;21.77;14.68;;;;;;;;;;4956362;28;20055;-82
2023/09/29 04:04:39;;;;;;;17.63;14.00;;;;;;;;;;4935437;28;20439;-82
2023/09/29 04:07:07;;;;;;;16.40;14.23;;;;;;;;;;4936915;28;20043;-81
2023/09/29 04:09:32;;;;;;;18.63;14.00;;;;;;;;;;4959659;28;20090;-80
2023/09/29 04:11:58;;;;;;;20.13;15.02;;;;;;;;;;4943887;28;20145;-81
2023/09/29 04:14:23;;;;;;;16.38;14.27;;;;;;;;;;4954195;28;20503;-80
2023/09/29 04:16:49;;;;;;;21.20;14.25;;;;;;;;;;4960393;28;20494;-81
2023/09/29 04:19:15;;;;;;;17.80;13.80;;;;;;;;;;4974423;28;20086;-81
2023/09/29 04:21:41;;;;;;;17.77;13.63;;;;;;;;;;4950814;28;20043;-81
2023/09/29 04:24:06;;;;;;;18.42;13.80;;;;;;;;;;4958558;28;20285;-81
2023/09/29 04:26:32;;;;;;;17.90;14.15;;;;;;;;;;4959624;28;20028;-81
2023/09/29 04:28:57;;;;;;;15.88;13.85;;;;;;;;;;4955089;28;20050;-83
2023/09/29 04:31:23;;;;;;;18.15;14.80;;;;;;;;;;4938937;28;20039;-82
2023/09/29 04:33:48;;;;;;;16.80;12.63;;;;;;;;;;4973469;28;20046;-82
2023/09/29 04:36:14;;;;;;;15.18;12.43;;;;;;;;;;4958603;28;20146;-82
2023/09/29 04:38:41;;;;;;;20.13;13.50;;;;;;;;;;4941571;28;20082;-82
2023/09/29 04:41:07;;;;;;;17.05;12.95;;;;;;;;;;4951803;28;20037;-81
2023/09/29 04:43:32;;;;;;;16.75;12.75;;;;;;;;;;4951615;28;20034;-80
2023/09/29 04:45:58;;;;;;;15.60;12.15;;;;;;;;;;4957328;28;20059;-81
2023/09/29 04:48:23;;;;;;;17.90;12.70;;;;;;;;;;4945703;28;20462;-80
2023/09/29 04:50:55;;;;;;;22.23;12.60;;;;;;;;;;4929657;28;20546;-80
2023/09/29 04:53:22;;;;;;;17.20;11.93;;;;;;;;;;4939568;28;20118;-80
2023/09/29 04:55:51;;;;;;;15.48;10.88;;;;;;;;;;4954291;28;20047;-80
2023/09/29 04:58:16;;;;;;;16.17;12.18;;;;;;;;;;4940904;28;20590;-80
2023/09/29 05:00:42;;;;;;;17.83;12.25;;;;;;;;;;4934464;28;20035;-81
2023/09/29 05:03:10;;;;;;;19.02;12.30;;;;;;;;;;4957299;28;20035;-80
2023/09/29 05:05:35;;;;;;;;;;;;;;;;;;4961675;28;20031;-80
2023/09/29 05:08:01;;;;;;;16.33;12.70;;;;;;;;;;4958434;28;19928;-81
2023/09/29 05:10:26;;;;;;;17.55;11.88;;;;;;;;;;4939569;28;20567;-81
2023/09/29 05:12:52;;;;;;;16.73;11.70;;;;;;;;;;4941925;28;20117;-81
2023/09/29 05:15:17;;;;;;;17.98;12.55;;;;;;;;;;4957066;28;20070;-80
2023/09/29 05:17:43;;;;;;;16.58;12.85;;;;;;;;;;4956211;28;20036;-81
2023/09/29 05:20:10;;;;;;;19.02;13.05;;;;;;;;;;4940694;28;20181;-79
2023/09/29 05:22:36;;;;;;;15.27;12.60;;;;;;;;;;4956820;28;20031;-80
2023/09/29 05:25:01;;;;;;;16.48;12.68;;;;;;;;;;4940357;28;20075;-79
2023/09/29 05:27:29;;;;;;;15.25;12.20;;;;;;;;;;4941008;28;20059;-79
2023/09/29 05:29:54;;;;;;;;;;;;;;;;;;4938615;28;20422;-80
2023/09/29 05:32:20;;;;;;;17.13;11.63;;;;;;;;;;4962200;28;20362;-79
2023/09/29 05:34:45;;;;;;;15.73;11.80;;;;;;;;;;4954388;28;20040;-80
2023/09/29 05:37:11;;;;;;;16.73;11.80;;;;;;;;;;4971602;28;20181;-79
2023/09/29 05:39:36;;;;;;;15.05;11.02;;;;;;;;;;4958233;28;20037;-80
2023/09/29 05:42:03;;;;;;;16.73;11.50;;;;;;;;;;4956727;28;20035;-77
2023/09/29 05:44:29;;;;;;;15.75;10.95;;;;;;;;;;4958051;28;20039;-79
2023/09/29 05:46:54;;;;;;;15.70;11.02;;;;;;;;;;4955974;28;20101;-79
2023/09/29 05:49:20;;;;;;;13.48;10.38;;;;;;;;;;4962174;28;20039;-80
2023/09/29 05:51:45;;;;;;;15.90;10.30;;;;;;;;;;4956272;28;20038;-80
2023/09/29 05:54:11;;;;;;;14.90;10.20;;;;;;;;;;4973406;28;20030;-80
2023/09/29 05:56:36;;;;;;;14.07;9.77;;;;;;;;;;4962651;28;20058;-80
2023/09/29 05:59:02;;;;;;;15.32;10.10;;;;;;;;;;4958591;28;20035;-80
2023/09/29 06:01:27;;;;;;;15.38;10.10;;;;;;;;;;4941042;28;20035;-79
2023/09/29 06:03:53;;;;;;;19.08;10.27;;;;;;;;;;4945945;28;20447;-78
2023/09/29 06:06:18;;;;;;;13.65;9.40;;;;;;;;;;4939323;28;20047;-79
2023/09/29 06:08:44;;;;;;;14.23;9.27;;;;;;;;;;4974438;28;20115;-79
2023/09/29 06:11:10;;;;;;;13.65;8.98;;;;;;;;;;4940591;28;20039;-80
2023/09/29 06:13:37;;;;;;;17.58;9.07;;;;;;;;;;4958665;28;20043;-80
2023/09/29 06:16:03;;;;;;;12.98;9.10;;;;;;;;;;4956662;28;20506;-79
2023/09/29 06:18:29;;;;;;;12.73;8.45;;;;;;;;;;4956371;28;20137;-80
2023/09/29 06:20:54;;;;;;;14.30;8.68;;;;;;;;;;4953324;28;20035;-78
2023/09/29 06:23:22;;;;;;;16.95;8.73;;;;;;;;;;4963217;28;20083;-79
2023/09/29 06:25:58;;;;;;;13.73;8.10;;;;;;;;;;4955042;28;20034;-79
2023/09/29 06:28:24;;;;;;;14.65;8.35;;;;;;;;;;4970543;28;20494;-80
2023/09/29 06:30:56;;;;;;;13.27;8.25;;;;;;;;;;4955012;28;20089;-78
2023/09/29 06:33:23;;;;;;;17.75;8.63;;;;;;;;;;4955933;28;20046;-78
2023/09/29 06:35:48;;;;;;;11.50;7.75;;;;;;;;;;4954532;28;20109;-78
2023/09/29 06:38:15;;;;;;;17.30;8.88;;;;;;;;;;4970937;28;20066;-79
2023/09/29 06:40:43;;;;;;;20.77;8.35;;;;;;;;;;4957469;28;20125;-78
2023/09/29 06:43:08;;;;;;;23.98;8.32;;;;;;;;;;4956186;28;20038;-80
2023/09/29 06:45:34;;;;;;;14.23;8.00;;;;;;;;;;4937378;28;20510;-79
2023/09/29 06:48:00;;;;;;;14.27;7.82;;;;;;;;;;4956172;28;20126;-79
2023/09/29 06:50:25;;;;;;;10.50;7.25;;;;;;;;;;4940673;28;20486;-79
2023/09/29 06:52:50;;;;;;;13.48;8.07;;;;;;;;;;4938212;28;20039;-79
2023/09/29 06:55:16;;;;;;;9.48;7.07;;;;;;;;;;4960471;28;20880;-79
2023/09/29 06:57:41;;;;;;;11.15;7.38;;;;;;;;;;4955253;28;20081;-79
2023/09/29 07:00:08;;;;;;;9.80;7.20;;;;;;;;;;4957085;28;20089;-79
2023/09/29 07:02:34;;;;;;;13.55;7.35;;;;;;;;;;4955207;28;20046;-79
2023/09/29 07:05:00;;;;;;;9.10;6.68;;;;;;;;;;4955568;28;20038;-79
2023/09/29 07:07:25;;;;;;;10.15;6.95;;;;;;;;;;4954687;28;20031;-78
2023/09/29 07:09:51;;;;;;;11.20;6.90;;;;;;;;;;4975113;28;20559;-79
2023/09/29 07:12:16;;;;;;;9.75;6.43;;;;;;;;;;4958685;28;20046;-79
2023/09/29 07:14:41;;;;;;;11.00;6.68;;;;;;;;;;4944563;28;20094;-80
2023/09/29 07:17:07;;;;;;;10.80;6.35;;;;;;;;;;4942786;28;20043;-79
2023/09/29 07:19:33;;;;;;;10.88;6.15;;;;;;;;;;4948855;28;20035;-80
2023/09/29 07:21:59;;;;;;;7.63;5.93;;;;;;;;;;4964475;28;20504;-80
2023/09/29 07:24:26;;;;;;;9.13;6.50;;;;;;;;;;4941652;28;20113;-78
2023/09/29 07:26:51;;;;;;;12.37;6.47;;;;;;;;;;4958602;28;20055;-80
2023/09/29 07:29:21;;;;;;;8.82;5.68;;;;;;;;;;4944004;28;20182;-79
2023/09/29 07:31:47;;;;;;;9.52;6.70;;;;;;;;;;4952556;28;20027;-79
2023/09/29 07:34:15;;;;;;;8.73;6.65;;;;;;;;;;4965168;28;20504;-81
2023/09/29 07:36:44;;;;;;;10.57;5.93;;;;;;;;;;4949156;28;20046;-80
2023/09/29 07:39:13;;;;;;;10.68;5.90;;;;;;;;;;4973877;28;20038;-80
2023/09/29 07:41:38;;;;;;;8.23;5.47;;;;;;;;;;4964169;28;20032;-79
2023/09/29 07:44:05;;;;;;;10.65;5.60;;;;;;;;;;4958312;28;20461;-80
2023/09/29 07:46:30;;;;;;;15.88;5.50;;;;;;;;;;4957682;28;20355;-81
2023/09/29 07:48:55;;;;;;;10.85;5.50;;;;;;;;;;4949094;28;20118;-80
2023/09/29 07:51:24;;;;;;;9.23;5.28;;;;;;;;;;4957386;28;20038;-79
2023/09/29 07:53:52;;;;;;;8.63;4.88;;;;;;;;;;4973353;28;20440;-80
2023/09/29 07:56:17;;;;;;;6.93;4.50;;;;;;;;;;4965146;28;20616;-79
2023/09/29 07:58:43;;;;;;;12.23;5.15;;;;;;;;;;4944144;28;20039;-80
2023/09/29 08:01:09;;;;;;;8.60;4.40;;;;;;;;;;4942273;28;20034;-79
2023/09/29 08:03:34;;;;;;;7.35;4.60;;;;;;;;;;4963336;28;20121;-79
2023/09/29 08:06:00;;;;;;;7.65;4.68;;;;;;;;;;4952768;28;20046;-79
2023/09/29 08:08:26;;;;;;;11.02;4.90;;;;;;;;;;4942634;28;20046;-78
2023/09/29 08:10:54;;;;;;;9.90;4.65;;;;;;;;;;4944481;28;20049;-79
2023/09/29 08:13:19;;;;;;;7.95;4.80;;;;;;;;;;4948753;28;20526;-79
2023/09/29 08:15:46;;;;;;;8.77;4.88;;;;;;;;;;4956969;28;20039;-80
2023/09/29 08:18:12;;;;;;;8.93;4.97;;;;;;;;;;4964271;28;20065;-80
2023/09/29 08:20:41;;;;;;;9.02;4.40;;;;;;;;;;4963351;28;20034;-79
2023/09/29 08:23:06;;;;;;;9.27;4.55;;;;;;;;;;4957919;28;20511;-79
2023/09/29 08:25:33;;;;;;;9.73;4.85;;;;;;;;;;4955511;28;20050;-79
2023/09/29 08:28:02;;;;;;;11.27;4.70;;;;;;;;;;4972320;28;20066;-79
2023/09/29 08:30:29;;;;;;;11.43;4.82;;;;;;;;;;4964143;28;20279;-79
2023/09/29 08:32:54;;;;;;;11.88;4.80;;;;;;;;;;4955710;28;20602;-79
2023/09/29 08:35:20;;;;;;;13.75;4.90;;;;;;;;;;4956188;28;20039;-79
2023/09/29 08:37:46;;;;;;;8.93;4.97;;;;;;;;;;4956235;28;20121;-79
2023/09/29 08:40:14;;;;;;;7.68;5.10;;;;;;;;;;4956806;28;20501;-79
2023/09/29 08:42:41;;;;;;;;;;;;;;;;;;4948157;28;20042;-79
2023/09/29 08:45:11;;;;;;;8.60;4.72;;;;;;;;;;4974060;28;19918;-79
2023/09/29 08:47:37;;;;;;;8.80;4.68;;;;;;;;;;4962559;28;20443;-79
2023/09/29 08:50:04;;;;;;;9.68;4.60;;;;;;;;;;4962001;28;20047;-78
2023/09/29 08:52:31;;;;;;;9.48;4.43;;;;;;;;;;4938556;28;25019;-80
2023/09/29 08:54:56;;;;;;;11.25;4.75;;;;;;;;;;4958780;28;20071;-79
2023/09/29 08:57:23;;;;;;;7.82;4.50;;;;;;;;;;4958638;28;20111;-79
2023/09/29 08:59:49;;;;;;;9.77;4.27;;;;;;;;;;4960285;28;20609;-79
2023/09/29 09:02:15;;;;;;;9.55;4.20;;;;;;;;;;4920713;28;20065;-79
2023/09/29 09:04:41;;;;;;;6.72;4.60;;;;;;;;;;4939390;28;20043;-79
2023/09/29 09:07:06;;;;;;;9.63;4.22;;;;;;;;;;4945192;28;20387;-79
2023/09/29 09:09:35;;;;;;;9.48;4.40;;;;;;;;;;4947595;28;20411;-79
2023/09/29 09:12:01;;;;;;;10.82;4.13;;;;;;;;;;4954375;28;20076;-80
2023/09/29 09:14:26;;;;;;;6.13;4.13;;;;;;;;;;4949547;28;20133;-79
2023/09/29 09:16:52;;;;;;;7.57;3.90;;;;;;;;;;4938696;28;20042;-79
2023/09/29 09:19:18;;;;;;;8.93;4.28;;;;;;;;;;4957592;28;20105;-79
2023/09/29 09:21:46;;;;;;;9.95;4.45;;;;;;;;;;4958087;28;20034;-79
2023/09/29 09:24:21;;;;;;;6.97;4.50;;;;;;;;;;4958282;28;20509;-78
2023/09/29 09:26:47;;;;;;;7.10;4.38;;;;;;;;;;4945334;28;20043;-80
2023/09/29 09:29:19;;;;;;;6.20;3.85;;;;;;;;;;4948913;28;20272;-79
2023/09/29 09:31:46;;;;;;;8.00;3.88;;;;;;;;;;4939912;28;20418;-78
2023/09/29 09:34:13;;;;;;;6.30;4.35;;;;;;;;;;4954369;28;20388;-78
2023/09/29 09:36:49;;;;;;;6.13;4.07;;;;;;;;;;4957629;28;20586;-79
2023/09/29 09:39:15;;;;;;;5.90;3.85;;;;;;;;;;4954767;28;20042;-79
2023/09/29 09:41:42;;;;;;;11.70;4.35;;;;;;;;;;4938214;28;20035;-80
2023/09/29 09:44:11;;;;;;;7.45;4.68;;;;;;;;;;4961555;28;20073;-79
2023/09/29 09:46:40;;;;;;;9.73;4.45;;;;;;;;;;4951440;28;20039;-79
2023/09/29 09:49:13;;;;;;;6.43;4.25;;;;;;;;;;4957504;28;20038;-79
2023/09/29 09:51:41;;;;;;;8.85;4.75;;;;;;;;;;4960134;28;20037;-79
2023/09/29 09:54:08;;;;;;;7.20;4.00;;;;;;;;;;4957119;28;20030;-79
2023/09/29 09:56:46;;;;;;;10.05;4.40;;;;;;;;;;4954814;28;20146;-79
2023/09/29 09:59:13;;;;;;;7.05;4.25;;;;;;;;;;4939352;28;20038;-80
2023/09/29 10:01:39;;;;;;;8.32;4.35;;;;;;;;;;4954385;28;20120;-79
2023/09/29 10:04:06;;;;;;;9.85;4.13;;;;;;;;;;4955178;28;20043;-80
2023/09/29 10:06:33;;;;;;;9.35;4.30;;;;;;;;;;4943682;28;20070;-80
2023/09/29 10:09:09;;;;;;;;;;;;;;;;;;4963375;28;20386;-79
2023/09/29 10:11:35;;;;;;;10.57;4.40;;;;;;;;;;4949328;28;20418;-80
2023/09/29 10:14:07;;;;;;;8.32;4.10;;;;;;;;;;4971724;28;20038;-79
2023/09/29 10:16:35;;;;;;;9.05;4.13;;;;;;;;;;4946141;28;20141;-80
2023/09/29 10:19:05;;;;;;;7.32;3.72;;;;;;;;;;4955397;28;20144;-80
2023/09/29 10:21:45;;;;;;;7.88;4.00;;;;;;;;;;4946389;28;20043;-80
2023/09/29 10:24:13;;;;;;;6.75;3.85;;;;;;;;;;4962286;28;20142;-79
2023/09/29 10:26:47;;;;;;;6.40;4.00;;;;;;;;;;4970379;28;20039;-80
2023/09/29 10:29:29;;;;;;;8.38;3.80;;;;;;;;;;4940068;28;20039;-79
2023/09/29 10:32:13;;;;;;;9.02;4.28;;;;;;;;;;4964489;28;20118;-79
2023/09/29 10:34:40;;;;;;;8.43;4.07;;;;;;;;;;4947084;28;20054;-79
2023/09/29 10:37:06;;;;;;;10.80;4.38;;;;;;;;;;4954640;28;20047;-79
2023/09/29 10:39:31;;;;;;;7.13;4.18;;;;;;;;;;4945728;28;20364;-80
2023/09/29 10:41:58;;;;;;;9.80;3.95;;;;;;;;;;4945056;28;20031;-79
2023/09/29 10:44:27;;;;;;;5.55;3.95;;;;;;;;;;4940150;28;20042;-80
2023/09/29 10:46:53;;;;;;;6.68;3.85;;;;;;;;;;4964356;28;20031;-79
2023/09/29 10:49:18;;;;;;;7.10;3.78;;;;;;;;;;4943418;28;20035;-79
2023/09/29 10:51:45;;;;;;;5.70;3.60;;;;;;;;;;4956313;28;20491;-78
2023/09/29 10:54:11;;;;;;;7.25;3.75;;;;;;;;;;4960007;28;20039;-79
2023/09/29 10:56:37;;;;;;;6.53;3.70;;;;;;;;;;4941980;28;20513;-78
2023/09/29 10:59:07;;;;;;;7.55;4.60;;;;;;;;;;4958665;28;20066;-79
2023/09/29 11:01:36;;;;;;;8.40;4.10;;;;;;;;;;4948303;28;20495;-79
2023/09/29 11:04:03;;;;;;;7.40;3.75;;;;;;;;;;4942222;28;20046;-79
2023/09/29 11:06:29;;;;;;;7.40;3.92;;;;;;;;;;4949525;28;20388;-79
2023/09/29 11:09:06;;;;;;;6.68;3.60;;;;;;;;;;4959202;28;20038;-80
2023/09/29 11:11:36;;;;;;;8.98;3.70;;;;;;;;;;4979676;28;20126;-80
2023/09/29 11:14:05;;;;;;;6.72;3.78;;;;;;;;;;4949211;28;20559;-80
2023/09/29 11:16:31;;;;;;;8.75;3.67;;;;;;;;;;4957309;28;20053;-80
2023/09/29 11:19:15;;;;;;;7.97;3.70;;;;;;;;;;4958283;28;20039;-80
2023/09/29 11:21:41;;;;;;;8.88;3.83;;;;;;;;;;4964239;28;20027;-80
2023/09/29 11:24:13;;;;;;;7.95;3.88;;;;;;;;;;4947908;28;20755;-79
2023/09/29 11:26:42;;;;;;;7.25;3.75;;;;;;;;;;4963810;28;20565;-79
2023/09/29 11:29:24;;;;;;;7.75;3.75;;;;;;;;;;4964684;28;20093;-80
2023/09/29 11:31:51;;;;;;;6.15;3.65;;;;;;;;;;4979615;28;20395;-80
2023/09/29 11:34:17;;;;;;;8.77;4.00;;;;;;;;;;4943839;28;20031;-80
2023/09/29 11:36:45;;;;;;;7.55;3.80;;;;;;;;;;4962161;28;20046;-79
2023/09/29 11:39:17;;;;;;;6.57;3.92;;;;;;;;;;4976058;28;20039;-81
2023/09/29 11:41:43;;;;;;;8.15;3.85;;;;;;;;;;4956959;28;20070;-81
2023/09/29 11:44:12;;;;;;;5.85;3.67;;;;;;;;;;4965130;28;20058;-79
2023/09/29 11:46:39;;;;;;;9.60;3.88;;;;;;;;;;4958913;28;20073;-79
2023/09/29 11:49:05;;;;;;;6.43;3.78;;;;;;;;;;4942822;28;20050;-79
2023/09/29 11:51:30;;;;;;;7.68;3.65;;;;;;;;;;4941540;28;20691;-79
2023/09/29 11:53:56;;;;;;;7.28;3.63;;;;;;;;;;4957506;28;20035;-79
2023/09/29 11:56:22;;;;;;;8.95;3.70;;;;;;;;;;4940294;28;20049;-80
2023/09/29 11:58:47;;;;;;;6.80;3.72;;;;;;;;;;4958196;28;20046;-80
2023/09/29 12:01:13;;;;;;;9.88;3.78;;;;;;;;;;4958652;28;20035;-80
2023/09/29 12:03:39;;;;;;;7.72;3.47;;;;;;;;;;4948686;28;20047;-79
2023/09/29 12:06:05;;;;;;;7.45;3.75;;;;;;;;;;4948562;28;20035;-79
2023/09/29 12:08:30;;;;;;;6.45;4.10;;;;;;;;;;4973597;28;20785;-80
2023/09/29 12:10:56;;;;;;;7.47;3.40;;;;;;;;;;4954362;28;20474;-81
2023/09/29 12:13:21;;;;;;;7.53;4.03;;;;;;;;;;4975384;28;20483;-81
2023/09/29 12:15:47;;;;;;;7.15;3.42;;;;;;;;;;4973551;28;20544;-80
2023/09/29 12:18:13;;;;;;;5.63;3.75;;;;;;;;;;4971938;28;20537;-80
2023/09/29 12:20:39;;;;;;;6.25;3.20;;;;;;;;;;4956416;28;20035;-81
2023/09/29 12:23:06;;;;;;;7.93;3.08;;;;;;;;;;4973212;28;20491;-81
2023/09/29 12:25:32;;;;;;;7.60;3.50;;;;;;;;;;4956128;28;20038;-81
2023/09/29 12:27:58;;;;;;;6.05;3.17;;;;;;;;;;4964591;28;20050;-80
2023/09/29 12:30:24;;;;;;;7.25;3.13;;;;;;;;;;4948906;28;20054;-81
2023/09/29 12:32:50;;;;;;;6.30;3.40;;;;;;;;;;4941536;28;20032;-80
2023/09/29 12:35:16;;;;;;;7.32;3.60;;;;;;;;;;4957238;28;20174;-80
2023/09/29 12:37:42;;;;;;;7.38;3.13;;;;;;;;;;4956622;28;20123;-80
2023/09/29 12:40:09;;;;;;;6.80;3.03;;;;;;;;;;4958246;28;20101;-80
2023/09/29 12:42:35;;;;;;;10.80;3.60;;;;;;;;;;4948021;28;20398;-80
2023/09/29 12:45:01;;;;;;;7.40;3.60;;;;;;;;;;4963690;28;20042;-79
2023/09/29 12:47:26;;;;;;;6.97;3.15;;;;;;;;;;4958237;28;20034;-79
2023/09/29 12:49:52;;;;;;;6.13;3.25;;;;;;;;;;4941432;28;20039;-80
2023/09/29 12:52:18;;;;;;;8.75;3.35;;;;;;;;;;4956159;28;20043;-80
2023/09/29 12:54:45;;;;;;;6.35;3.50;;;;;;;;;;4956257;28;20066;-80
2023/09/29 12:57:11;;;;;;;8.43;3.35;;;;;;;;;;4959117;28;20066;-79
2023/09/29 12:59:37;;;;;;;6.20;3.97;;;;;;;;;;4947985;28;20143;-80
2023/09/29 13:02:09;;;;;;;8.20;3.58;;;;;;;;;;4954887;28;20513;-80
2023/09/29 13:04:36;;;;;;;5.70;3.33;;;;;;;;;;4962822;28;20037;-80
2023/09/29 13:07:04;;;;;;;5.55;3.67;;;;;;;;;;4939222;28;20113;-80
2023/09/29 13:09:33;;;;;;;10.55;3.63;;;;;;;;;;4962413;28;20043;-80
2023/09/29 13:11:59;;;;;;;8.65;3.92;;;;;;;;;;4962600;28;20039;-80
2023/09/29 13:14:24;;;;;;;6.40;3.72;;;;;;;;;;4958523;28;20047;-79
2023/09/29 13:16:50;;;;;;;7.60;3.50;;;;;;;;;;4956088;28;20113;-79
2023/09/29 13:19:15;;;;;;;8.45;3.72;;;;;;;;;;4971751;28;20031;-80
2023/09/29 13:21:41;;;;;;;8.57;3.90;;;;;;;;;;4954450;28;20035;-79
2023/09/29 13:24:07;;;;;;;8.60;4.00;;;;;;;;;;4973308;28;20043;-80
2023/09/29 13:26:32;;;;;;;9.38;4.30;;;;;;;;;;4946840;28;20065;-79
2023/09/29 13:28:58;;;;;;;6.57;4.25;;;;;;;;;;4958720;28;20137;-79
2023/09/29 13:31:23;;;;;;;8.85;3.80;;;;;;;;;;4956673;28;20066;-79
2023/09/29 13:33:50;;;;;;;8.95;4.25;;;;;;;;;;4940527;28;20036;-78
2023/09/29 13:36:17;;;;;;;5.25;3.53;;;;;;;;;;4955023;28;20042;-79
2023/09/29 13:38:43;;;;;;;7.13;4.00;;;;;;;;;;4959713;28;20038;-80
2023/09/29 13:41:09;;;;;;;9.70;4.22;;;;;;;;;;4947854;28;20050;-80
2023/09/29 13:43:34;;;;;;;7.28;4.20;;;;;;;;;;4962473;28;20039;-80
2023/09/29 13:45:59;;;;;;;7.45;4.03;;;;;;;;;;4956156;28;20098;-79
2023/09/29 13:48:25;;;;;;;6.45;4.20;;;;;;;;;;4955923;28;20054;-79
2023/09/29 13:50:51;;;;;;;9.70;4.05;;;;;;;;;;4939038;28;20146;-79
2023/09/29 13:53:17;;;;;;;11.18;4.53;;;;;;;;;;4956450;28;20039;-80
2023/09/29 13:55:43;;;;;;;10.63;3.88;;;;;;;;;;4955082;28;20101;-78
2023/09/29 13:58:09;;;;;;;8.65;3.97;;;;;;;;;;4938444;28;20058;-79
2023/09/29 14:00:34;;;;;;;7.57;4.20;;;;;;;;;;4954857;28;20614;-80
2023/09/29 14:03:01;;;;;;;7.95;3.83;;;;;;;;;;4957924;28;20046;-80
2023/09/29 14:05:29;;;;;;;7.45;4.10;;;;;;;;;;4959890;28;20483;-81
2023/09/29 14:07:56;;;;;;;7.00;3.95;;;;;;;;;;4958354;28;20518;-80
2023/09/29 14:10:21;;;;;;;7.87;4.00;;;;;;;;;;4957850;28;20047;-81
2023/09/29 14:12:47;;;;;;;7.95;4.03;;;;;;;;;;4961763;28;20275;-80
2023/09/29 14:15:12;;;;;;;6.38;3.92;;;;;;;;;;4956481;28;20134;-80
2023/09/29 14:17:38;;;;;;;6.80;3.75;;;;;;;;;;4938834;28;20037;-81
2023/09/29 14:20:07;;;;;;;7.60;3.35;;;;;;;;;;4947881;28;20090;-80
2023/09/29 14:22:33;;;;;;;7.82;3.60;;;;;;;;;;4962471;28;20035;-80
2023/09/29 14:24:58;;;;;;;5.60;3.65;;;;;;;;;;4950270;28;20046;-80
2023/09/29 14:27:24;;;;;;;6.38;3.90;;;;;;;;;;4957798;28;20502;-81